Portada
METAR-TAF:

METAR-TAF

Aeroports :

Aeroport Internacional Amata Kabua

Majuro, Illes Marshall

latitud: 07-04N, longitud: 171-17E, altitud: 2 m

Observació

L'informe es va fer fa 14 hores i 4 minuts, a les 23:55 UTC
Vent 5 kt del Oest
Temperatura 29°C
Humitat 79%
Pressió 1012 hPa
Visibilitat: 24.1 km
Escasses núvols a una alçada de 1500 ft
Núvols disperses a una alçada de 5000 ft
Cel ennuvolat a una alçada de 12000 ft
Cel cobert a una alçada de 30000 ft

METAR: PKMJ 162355Z 27005KT 15SM FEW015 SCT050 BKN120 OVC300 29/25 A2988 RMK LAST

Hora: 01:59 (13:59 UTC)

Pronòstic

L'informe es va fer fa 2 hores i 39 minuts, a les 11:20 UTC
Pronòstic vàlid del 17 a les 12 UTC al 18 a les 12 UTC
Vent 11 kt del Est/Sud-Est
Visibilitat: 10 km
Escasses núvols a una alçada de 1600 ft
Núvols disperses a una alçada de 4000 ft
Cel ennuvolat a una alçada de 10000 ft
xàfecs en les proximitats

TAF: PKMJ 171120Z 1712/1812 11011KT P6SM VCSH FEW016 SCT040 BKN100

Observacions i pronòstics meteorològics de més de 4000 aeroports (METAR i TAF).

Les estacions disponibles són els punts grocs i vermells al mapa.

Posi el ratolí al punt desitjat per veure el nom de l'estació.

Feu clic per veure les observacions i els pronòstics meteorològics.

Per canviar el mapa: feu clic els botons verds amb una creu de color negre per apropar; al botó verd amb un guió per allunyar la imatge; o en les fletxes verdes per a mapes adjacents.


METAR-TAF: